sensor_id;sensor_type;location;lat;lon;timestamp;pressure;altitude;pressure_sealevel;temperature
61189;BMP280;47054;39.716;2.904;2022-12-24T00:00:38;100766.72;;;19.17
61189;BMP280;47054;39.716;2.904;2022-12-24T00:03:23;100773.69;;;19.21
61189;BMP280;47054;39.716;2.904;2022-12-24T00:06:15;100760.22;;;19.18
61189;BMP280;47054;39.716;2.904;2022-12-24T00:08:59;100759.44;;;19.17
61189;BMP280;47054;39.716;2.904;2022-12-24T00:11:44;100762.91;;;19.18
61189;BMP280;47054;39.716;2.904;2022-12-24T00:14:29;100764.06;;;19.20
61189;BMP280;47054;39.716;2.904;2022-12-24T00:17:13;100756.31;;;19.15
61189;BMP280;47054;39.716;2.904;2022-12-24T00:19:59;100757.88;;;19.16
61189;BMP280;47054;39.716;2.904;2022-12-24T00:22:45;100766.41;;;19.22
61189;BMP280;47054;39.716;2.904;2022-12-24T00:25:29;100757.44;;;19.14
61189;BMP280;47054;39.716;2.904;2022-12-24T00:28:14;100758.31;;;19.18
61189;BMP280;47054;39.716;2.904;2022-12-24T00:30:59;100757.91;;;19.20
61189;BMP280;47054;39.716;2.904;2022-12-24T00:33:47;100757.13;;;19.19
61189;BMP280;47054;39.716;2.904;2022-12-24T00:36:34;100756.31;;;19.15
61189;BMP280;47054;39.716;2.904;2022-12-24T00:39:18;100757.53;;;19.18
61189;BMP280;47054;39.716;2.904;2022-12-24T00:42:03;100753.28;;;19.17
61189;BMP280;47054;39.716;2.904;2022-12-24T00:44:48;100746.31;;;19.16
61189;BMP280;47054;39.716;2.904;2022-12-24T00:47:33;100752.53;;;19.20
61189;BMP280;47054;39.716;2.904;2022-12-24T00:50:17;100745.97;;;19.17
61189;BMP280;47054;39.716;2.904;2022-12-24T00:53:02;100750.97;;;19.19
61189;BMP280;47054;39.716;2.904;2022-12-24T00:55:47;100750.63;;;19.20
61189;BMP280;47054;39.716;2.904;2022-12-24T00:58:32;100754.44;;;19.19
61189;BMP280;47054;39.716;2.904;2022-12-24T01:01:17;100751.75;;;19.19
61189;BMP280;47054;39.716;2.904;2022-12-24T01:04:02;100748.28;;;19.19
61189;BMP280;47054;39.716;2.904;2022-12-24T01:07:07;100754.84;;;19.18
61189;BMP280;47054;39.716;2.904;2022-12-24T01:09:52;100742.84;;;19.15
61189;BMP280;47054;39.716;2.904;2022-12-24T01:12:37;100748.22;;;19.15
61189;BMP280;47054;39.716;2.904;2022-12-24T01:15:21;100757.44;;;19.14
61189;BMP280;47054;39.716;2.904;2022-12-24T01:18:06;100757.53;;;19.18
61189;BMP280;47054;39.716;2.904;2022-12-24T01:21:01;100762.50;;;19.19
61189;BMP280;47054;39.716;2.904;2022-12-24T01:23:46;100771.75;;;19.18
61189;BMP280;47054;39.716;2.904;2022-12-24T01:26:30;100774.44;;;19.18
61189;BMP280;47054;39.716;2.904;2022-12-24T01:29:15;100771.75;;;19.18
61189;BMP280;47054;39.716;2.904;2022-12-24T01:31:59;100772.88;;;19.17
61189;BMP280;47054;39.716;2.904;2022-12-24T01:34:44;100752.03;;;19.11
61189;BMP280;47054;39.716;2.904;2022-12-24T01:37:28;100770.97;;;19.18
61189;BMP280;47054;39.716;2.904;2022-12-24T01:40:15;100774.44;;;19.18
61189;BMP280;47054;39.716;2.904;2022-12-24T01:43:20;100771.31;;;19.16
61189;BMP280;47054;39.716;2.904;2022-12-24T01:46:24;100770.19;;;19.17
61189;BMP280;47054;39.716;2.904;2022-12-24T01:49:15;100763.97;;;19.13
61189;BMP280;47054;39.716;2.904;2022-12-24T01:52:04;100761.28;;;19.13
61189;BMP280;47054;39.716;2.904;2022-12-24T01:54:56;100741.59;;;19.06
61189;BMP280;47054;39.716;2.904;2022-12-24T01:57:45;100766.72;;;19.17
61189;BMP280;47054;39.716;2.904;2022-12-24T02:00:31;100750.53;;;19.13
61189;BMP280;47054;39.716;2.904;2022-12-24T02:03:17;100760.91;;;19.15
61189;BMP280;47054;39.716;2.904;2022-12-24T02:06:03;100750.13;;;19.11
61189;BMP280;47054;39.716;2.904;2022-12-24T02:08:48;100754.38;;;19.16
61189;BMP280;47054;39.716;2.904;2022-12-24T02:11:33;100753.19;;;19.10
61189;BMP280;47054;39.716;2.904;2022-12-24T02:14:20;100756.31;;;19.15
61189;BMP280;47054;39.716;2.904;2022-12-24T02:31:36;100750.13;;;19.11
61189;BMP280;47054;39.716;2.904;2022-12-24T02:34:44;100754.00;;;19.14
61189;BMP280;47054;39.716;2.904;2022-12-24T02:37:38;100735.88;;;19.07
61189;BMP280;47054;39.716;2.904;2022-12-24T02:40:28;100747.06;;;19.13
61189;BMP280;47054;39.716;2.904;2022-12-24T02:43:19;100728.94;;;19.06
61189;BMP280;47054;39.716;2.904;2022-12-24T02:46:17;100754.00;;;19.14
61189;BMP280;47054;39.716;2.904;2022-12-24T02:49:04;100744.75;;;19.11
61189;BMP280;47054;39.716;2.904;2022-12-24T02:51:49;100728.59;;;19.08
61189;BMP280;47054;39.716;2.904;2022-12-24T02:54:34;100732.81;;;19.09
61189;BMP280;47054;39.716;2.904;2022-12-24T02:57:30;100733.63;;;19.13
61189;BMP280;47054;39.716;2.904;2022-12-24T03:00:18;100723.63;;;19.10
61189;BMP280;47054;39.716;2.904;2022-12-24T03:03:37;100719.38;;;19.09
61189;BMP280;47054;39.716;2.904;2022-12-24T03:06:51;100718.63;;;19.12
61189;BMP280;47054;39.716;2.904;2022-12-24T03:09:48;100722.84;;;19.09
61189;BMP280;47054;39.716;2.904;2022-12-24T03:12:44;100676.03;;;18.84
61189;BMP280;47054;39.716;2.904;2022-12-24T03:15:31;100711.69;;;19.07
61189;BMP280;47054;39.716;2.904;2022-12-24T03:18:19;100720.16;;;19.09
61189;BMP280;47054;39.716;2.904;2022-12-24T03:23:58;100722.06;;;19.09
61189;BMP280;47054;39.716;2.904;2022-12-24T03:26:44;100693.16;;;19.02
61189;BMP280;47054;39.716;2.904;2022-12-24T03:29:29;100710.94;;;19.10
61189;BMP280;47054;39.716;2.904;2022-12-24T03:32:14;100711.72;;;19.11
61189;BMP280;47054;39.716;2.904;2022-12-24T03:34:59;100710.19;;;19.10
61189;BMP280;47054;39.716;2.904;2022-12-24T03:37:44;100702.41;;;19.05
61189;BMP280;47054;39.716;2.904;2022-12-24T03:40:29;100711.31;;;19.09
61189;BMP280;47054;39.716;2.904;2022-12-24T03:43:14;100700.97;;;19.11
61189;BMP280;47054;39.716;2.904;2022-12-24T03:46:03;100702.50;;;19.12
61189;BMP280;47054;39.716;2.904;2022-12-24T03:48:48;100703.25;;;19.09
61189;BMP280;47054;39.716;2.904;2022-12-24T03:51:33;100702.88;;;19.10
61189;BMP280;47054;39.716;2.904;2022-12-24T03:54:18;100692.41;;;19.05
61189;BMP280;47054;39.716;2.904;2022-12-24T03:57:03;100709.41;;;19.09
61189;BMP280;47054;39.716;2.904;2022-12-24T03:59:47;100704.81;;;19.10
61189;BMP280;47054;39.716;2.904;2022-12-24T04:02:31;100714.00;;;19.09
61189;BMP280;47054;39.716;2.904;2022-12-24T04:05:18;100703.19;;;19.05
61189;BMP280;47054;39.716;2.904;2022-12-24T04:08:03;100704.81;;;19.10
61189;BMP280;47054;39.716;2.904;2022-12-24T04:10:47;100694.34;;;19.05
61189;BMP280;47054;39.716;2.904;2022-12-24T04:13:32;100700.94;;;19.07
61189;BMP280;47054;39.716;2.904;2022-12-24T04:16:17;100680.47;;;18.99
61189;BMP280;47054;39.716;2.904;2022-12-24T04:19:01;100698.66;;;19.09
61189;BMP280;47054;39.716;2.904;2022-12-24T04:21:46;100700.88;;;19.04
61189;BMP280;47054;39.716;2.904;2022-12-24T04:24:32;100692.03;;;19.03
61189;BMP280;47054;39.716;2.904;2022-12-24T04:27:16;100692.09;;;19.07
61189;BMP280;47054;39.716;2.904;2022-12-24T04:30:02;100703.25;;;19.09
61189;BMP280;47054;39.716;2.904;2022-12-24T04:32:46;100699.03;;;19.08
61189;BMP280;47054;39.716;2.904;2022-12-24T04:35:31;100704.03;;;19.09
61189;BMP280;47054;39.716;2.904;2022-12-24T04:38:16;100692.50;;;19.09
61189;BMP280;47054;39.716;2.904;2022-12-24T04:43:47;100695.13;;;19.05
61189;BMP280;47054;39.716;2.904;2022-12-24T04:46:32;100682.41;;;19.02
61189;BMP280;47054;39.716;2.904;2022-12-24T04:49:18;100677.50;;;19.08
61189;BMP280;47054;39.716;2.904;2022-12-24T04:52:03;100685.59;;;19.08
61189;BMP280;47054;39.716;2.904;2022-12-24T04:54:48;100690.97;;;19.08
61189;BMP280;47054;39.716;2.904;2022-12-24T04:57:33;100677.03;;;19.02
61189;BMP280;47054;39.716;2.904;2022-12-24T05:00:19;100682.44;;;19.06
61189;BMP280;47054;39.716;2.904;2022-12-24T05:03:04;100677.44;;;19.01
61189;BMP280;47054;39.716;2.904;2022-12-24T05:05:48;100688.25;;;19.08
61189;BMP280;47054;39.716;2.904;2022-12-24T05:08:33;100690.19;;;19.07
61189;BMP280;47054;39.716;2.904;2022-12-24T05:11:18;100684.34;;;19.05
61189;BMP280;47054;39.716;2.904;2022-12-24T05:14:02;100692.41;;;19.05
61189;BMP280;47054;39.716;2.904;2022-12-24T05:16:47;100675.16;;;19.06
61189;BMP280;47054;39.716;2.904;2022-12-24T05:19:32;100682.44;;;19.06
61189;BMP280;47054;39.716;2.904;2022-12-24T05:22:16;100682.44;;;19.06
61189;BMP280;47054;39.716;2.904;2022-12-24T05:25:19;100680.16;;;19.04
61189;BMP280;47054;39.716;2.904;2022-12-24T05:28:23;100668.59;;;19.00
61189;BMP280;47054;39.716;2.904;2022-12-24T05:31:08;100680.16;;;19.04
61189;BMP280;47054;39.716;2.904;2022-12-24T05:33:52;100677.03;;;19.02
61189;BMP280;47054;39.716;2.904;2022-12-24T05:36:38;100680.13;;;19.01
61189;BMP280;47054;39.716;2.904;2022-12-24T05:39:23;100676.22;;;18.98
61189;BMP280;47054;39.716;2.904;2022-12-24T05:42:07;100670.53;;;19.03
61189;BMP280;47054;39.716;2.904;2022-12-24T05:44:52;100675.47;;;19.01
61189;BMP280;47054;39.716;2.904;2022-12-24T05:47:37;100662.44;;;19.00
61189;BMP280;47054;39.716;2.904;2022-12-24T05:50:21;100671.31;;;19.04
61189;BMP280;47054;39.716;2.904;2022-12-24T05:53:06;100661.31;;;19.01
61189;BMP280;47054;39.716;2.904;2022-12-24T05:55:51;100662.03;;;19.01
61189;BMP280;47054;39.716;2.904;2022-12-24T05:58:36;100665.94;;;19.04
61189;BMP280;47054;39.716;2.904;2022-12-24T06:01:21;100674.00;;;19.04
61189;BMP280;47054;39.716;2.904;2022-12-24T06:04:06;100665.47;;;18.98
61189;BMP280;47054;39.716;2.904;2022-12-24T06:06:51;100667.41;;;18.98
61189;BMP280;47054;39.716;2.904;2022-12-24T06:09:36;100667.03;;;18.99
61189;BMP280;47054;39.716;2.904;2022-12-24T06:12:21;100682.41;;;19.02
61189;BMP280;47054;39.716;2.904;2022-12-24T06:15:06;100670.50;;;19.00
61189;BMP280;47054;39.716;2.904;2022-12-24T06:17:51;100665.09;;;18.96
61189;BMP280;47054;39.716;2.904;2022-12-24T06:20:35;100671.63;;;18.99
61189;BMP280;47054;39.716;2.904;2022-12-24T06:23:20;100675.47;;;19.01
61189;BMP280;47054;39.716;2.904;2022-12-24T06:26:07;100670.50;;;19.00
61189;BMP280;47054;39.716;2.904;2022-12-24T06:28:52;100665.84;;;18.97
61189;BMP280;47054;39.716;2.904;2022-12-24T06:31:36;100680.84;;;19.01
61189;BMP280;47054;39.716;2.904;2022-12-24T06:34:20;100669.31;;;18.97
61189;BMP280;47054;39.716;2.904;2022-12-24T06:37:05;100687.78;;;19.02
61189;BMP280;47054;39.716;2.904;2022-12-24T06:39:50;100681.63;;;19.02
61189;BMP280;47054;39.716;2.904;2022-12-24T06:42:34;100682.81;;;19.01
61189;BMP280;47054;39.716;2.904;2022-12-24T06:45:19;100678.13;;;18.94
61189;BMP280;47054;39.716;2.904;2022-12-24T06:48:05;100684.31;;;19.02
61189;BMP280;47054;39.716;2.904;2022-12-24T06:50:50;100692.78;;;19.00
61189;BMP280;47054;39.716;2.904;2022-12-24T06:53:34;100686.63;;;19.00
61189;BMP280;47054;39.716;2.904;2022-12-24T06:56:19;100686.19;;;18.94
61189;BMP280;47054;39.716;2.904;2022-12-24T06:59:04;100688.50;;;18.96
61189;BMP280;47054;39.716;2.904;2022-12-24T07:01:49;100692.78;;;19.00
61189;BMP280;47054;39.716;2.904;2022-12-24T07:04:34;100696.59;;;18.99
61189;BMP280;47054;39.716;2.904;2022-12-24T07:07:18;100689.63;;;18.95
61189;BMP280;47054;39.716;2.904;2022-12-24T07:10:03;100706.22;;;19.00
61189;BMP280;47054;39.716;2.904;2022-12-24T07:12:48;100706.56;;;18.99
61189;BMP280;47054;39.716;2.904;2022-12-24T07:15:36;100705.44;;;19.00
61189;BMP280;47054;39.716;2.904;2022-12-24T07:18:20;100705.41;;;18.96
61189;BMP280;47054;39.716;2.904;2022-12-24T07:21:05;100706.56;;;18.99
61189;BMP280;47054;39.716;2.904;2022-12-24T07:23:51;100711.16;;;18.98
61189;BMP280;47054;39.716;2.904;2022-12-24T07:26:36;100705.03;;;18.98
61189;BMP280;47054;39.716;2.904;2022-12-24T07:29:21;100706.16;;;18.97
61189;BMP280;47054;39.716;2.904;2022-12-24T07:32:05;100720.38;;;18.97
61189;BMP280;47054;39.716;2.904;2022-12-24T07:34:50;100702.31;;;18.94
61189;BMP280;47054;39.716;2.904;2022-12-24T07:37:34;100713.09;;;18.98
61189;BMP280;47054;39.716;2.904;2022-12-24T07:40:19;100713.84;;;18.98
61189;BMP280;47054;39.716;2.904;2022-12-24T07:43:03;100707.25;;;18.92
61189;BMP280;47054;39.716;2.904;2022-12-24T07:45:49;100707.69;;;18.94
61189;BMP280;47054;39.716;2.904;2022-12-24T07:48:34;100710.41;;;18.98
61189;BMP280;47054;39.716;2.904;2022-12-24T07:51:21;100716.53;;;18.98
61189;BMP280;47054;39.716;2.904;2022-12-24T07:54:06;100713.84;;;18.98
61189;BMP280;47054;39.716;2.904;2022-12-24T07:56:53;100706.13;;;18.93
61189;BMP280;47054;39.716;2.904;2022-12-24T07:59:46;100708.47;;;18.98
61189;BMP280;47054;39.716;2.904;2022-12-24T08:02:33;100706.13;;;18.93
61189;BMP280;47054;39.716;2.904;2022-12-24T08:05:28;100718.06;;;18.96
61189;BMP280;47054;39.716;2.904;2022-12-24T08:08:17;100716.16;;;18.96
61189;BMP280;47054;39.716;2.904;2022-12-24T08:11:05;100704.56;;;18.92
61189;BMP280;47054;39.716;2.904;2022-12-24T08:13:50;100706.13;;;18.93
61189;BMP280;47054;39.716;2.904;2022-12-24T08:16:36;100711.53;;;18.97
61189;BMP280;47054;39.716;2.904;2022-12-24T08:19:22;100715.78;;;18.98
61189;BMP280;47054;39.716;2.904;2022-12-24T08:22:09;100716.88;;;18.93
61189;BMP280;47054;39.716;2.904;2022-12-24T08:24:54;100716.16;;;18.96
61189;BMP280;47054;39.716;2.904;2022-12-24T08:27:39;100724.97;;;18.97
61189;BMP280;47054;39.716;2.904;2022-12-24T08:30:24;100719.50;;;18.90
61189;BMP280;47054;39.716;2.904;2022-12-24T08:33:16;100714.91;;;18.90
61189;BMP280;47054;39.716;2.904;2022-12-24T08:36:06;100733.03;;;18.97
61189;BMP280;47054;39.716;2.904;2022-12-24T08:38:52;100721.75;;;18.88
61189;BMP280;47054;39.716;2.904;2022-12-24T08:41:36;100735.19;;;18.88
61189;BMP280;47054;39.716;2.904;2022-12-24T08:44:24;100738.41;;;18.97
61189;BMP280;47054;39.716;2.904;2022-12-24T08:47:09;100730.25;;;18.90
61189;BMP280;47054;39.716;2.904;2022-12-24T08:49:53;100730.25;;;18.90
61189;BMP280;47054;39.716;2.904;2022-12-24T08:52:42;100747.25;;;18.97
61189;BMP280;47054;39.716;2.904;2022-12-24T08:55:27;100735.16;;;18.84
61189;BMP280;47054;39.716;2.904;2022-12-24T08:58:14;100745.31;;;18.94
61189;BMP280;47054;39.716;2.904;2022-12-24T09:01:00;100755.72;;;18.99
61189;BMP280;47054;39.716;2.904;2022-12-24T09:03:44;100737.50;;;18.86
61189;BMP280;47054;39.716;2.904;2022-12-24T09:06:28;100766.13;;;19.01
61189;BMP280;47054;39.716;2.904;2022-12-24T09:09:16;100766.84;;;18.98
61189;BMP280;47054;39.716;2.904;2022-12-24T09:12:03;100761.09;;;18.99
61189;BMP280;47054;39.716;2.904;2022-12-24T09:14:49;100771.09;;;19.02
61189;BMP280;47054;39.716;2.904;2022-12-24T09:17:35;100776.47;;;19.02
61189;BMP280;47054;39.716;2.904;2022-12-24T09:20:20;100766.50;;;19.03
61189;BMP280;47054;39.716;2.904;2022-12-24T09:23:05;100774.59;;;19.03
61189;BMP280;47054;39.716;2.904;2022-12-24T09:25:49;100773.47;;;19.04
61189;BMP280;47054;39.716;2.904;2022-12-24T09:28:34;100776.94;;;19.04
61189;BMP280;47054;39.716;2.904;2022-12-24T09:31:19;100781.06;;;19.02
61189;BMP280;47054;39.716;2.904;2022-12-24T09:34:05;100785.00;;;19.04
61189;BMP280;47054;39.716;2.904;2022-12-24T09:36:50;100790.75;;;19.06
61189;BMP280;47054;39.716;2.904;2022-12-24T09:39:37;100789.63;;;19.07
61189;BMP280;47054;39.716;2.904;2022-12-24T09:42:47;100796.53;;;19.08
61189;BMP280;47054;39.716;2.904;2022-12-24T09:45:37;100784.16;;;19.00
61189;BMP280;47054;39.716;2.904;2022-12-24T09:48:30;100791.50;;;19.03
61189;BMP280;47054;39.716;2.904;2022-12-24T09:51:39;100799.22;;;19.08
61189;BMP280;47054;39.716;2.904;2022-12-24T09:54:30;100795.28;;;19.02
61189;BMP280;47054;39.716;2.904;2022-12-24T09:57:35;100795.78;;;19.08
61189;BMP280;47054;39.716;2.904;2022-12-24T10:00:24;100798.09;;;19.09
61189;BMP280;47054;39.716;2.904;2022-12-24T10:03:16;100796.19;;;19.10
61189;BMP280;47054;39.716;2.904;2022-12-24T10:06:20;100795.41;;;19.09
61189;BMP280;47054;39.716;2.904;2022-12-24T10:16:02;100795.41;;;19.09
61189;BMP280;47054;39.716;2.904;2022-12-24T10:18:55;100796.53;;;19.08
61189;BMP280;47054;39.716;2.904;2022-12-24T10:24:48;100793.84;;;19.08
61189;BMP280;47054;39.716;2.904;2022-12-24T10:27:37;100797.72;;;19.11
61189;BMP280;47054;39.716;2.904;2022-12-24T10:30:23;100796.25;;;19.13
61189;BMP280;47054;39.716;2.904;2022-12-24T10:33:19;100793.59;;;19.17
61189;BMP280;47054;39.716;2.904;2022-12-24T10:36:09;100790.56;;;19.18
61189;BMP280;47054;39.716;2.904;2022-12-24T10:38:57;100787.88;;;19.18
61189;BMP280;47054;39.716;2.904;2022-12-24T10:41:44;100777.06;;;19.15
61189;BMP280;47054;39.716;2.904;2022-12-24T10:44:30;100785.97;;;19.22
61189;BMP280;47054;39.716;2.904;2022-12-24T10:47:17;100779.44;;;19.23
61189;BMP280;47054;39.716;2.904;2022-12-24T10:50:12;100783.00;;;19.27
61189;BMP280;47054;39.716;2.904;2022-12-24T10:53:17;100774.53;;;19.29
61189;BMP280;47054;39.716;2.904;2022-12-24T10:56:05;100768.75;;;19.27
61189;BMP280;47054;39.716;2.904;2022-12-24T10:58:53;100767.22;;;19.29
61189;BMP280;47054;39.716;2.904;2022-12-24T11:01:44;100763.06;;;19.32
61189;BMP280;47054;39.716;2.904;2022-12-24T11:04:30;100768.84;;;19.34
61189;BMP280;47054;39.716;2.904;2022-12-24T11:07:22;100746.53;;;19.33
61189;BMP280;47054;39.716;2.904;2022-12-24T11:10:22;100758.13;;;19.37
61189;BMP280;47054;39.716;2.904;2022-12-24T11:16:24;100751.66;;;19.42
61189;BMP280;47054;39.716;2.904;2022-12-24T11:19:28;100743.16;;;19.40
61189;BMP280;47054;39.716;2.904;2022-12-24T11:22:21;100735.88;;;19.40
61189;BMP280;47054;39.716;2.904;2022-12-24T11:25:25;100729.00;;;19.46
61189;BMP280;47054;39.716;2.904;2022-12-24T11:28:31;100722.47;;;19.44
61189;BMP280;47054;39.716;2.904;2022-12-24T11:31:21;100717.44;;;19.39
61189;BMP280;47054;39.716;2.904;2022-12-24T11:34:27;100720.97;;;19.50
61189;BMP280;47054;39.716;2.904;2022-12-24T11:37:23;100709.44;;;19.46
61189;BMP280;47054;39.716;2.904;2022-12-24T11:40:35;100706.34;;;19.44
61189;BMP280;47054;39.716;2.904;2022-12-24T11:43:26;100687.47;;;19.40
61189;BMP280;47054;39.716;2.904;2022-12-24T11:46:40;100716.81;;;19.52
61189;BMP280;47054;39.716;2.904;2022-12-24T11:49:28;100713.69;;;19.50
61189;BMP280;47054;39.716;2.904;2022-12-24T11:52:22;100703.38;;;19.52
61189;BMP280;47054;39.716;2.904;2022-12-24T11:55:22;100702.63;;;19.55
61189;BMP280;47054;39.716;2.904;2022-12-24T11:58:30;100700.72;;;19.56
61189;BMP280;47054;39.716;2.904;2022-12-24T12:01:52;100693.38;;;19.56
61189;BMP280;47054;39.716;2.904;2022-12-24T12:04:39;100688.38;;;19.55
61189;BMP280;47054;39.716;2.904;2022-12-24T12:07:30;100682.22;;;19.54
61189;BMP280;47054;39.716;2.904;2022-12-24T12:10:24;100680.34;;;19.58
61189;BMP280;47054;39.716;2.904;2022-12-24T12:13:12;100687.28;;;19.59
61189;BMP280;47054;39.716;2.904;2022-12-24T12:19:01;100664.94;;;19.52
61189;BMP280;47054;39.716;2.904;2022-12-24T12:21:48;100670.38;;;19.59
61189;BMP280;47054;39.716;2.904;2022-12-24T12:24:45;100680.78;;;19.64
61189;BMP280;47054;39.716;2.904;2022-12-24T12:27:43;100669.22;;;19.60
61189;BMP280;47054;39.716;2.904;2022-12-24T12:30:29;100675.41;;;19.64
61189;BMP280;47054;39.716;2.904;2022-12-24T12:33:24;100670.44;;;19.66
61189;BMP280;47054;39.716;2.904;2022-12-24T12:36:12;100662.31;;;19.62
61189;BMP280;47054;39.716;2.904;2022-12-24T12:38:59;100663.16;;;19.66
61189;BMP280;47054;39.716;2.904;2022-12-24T12:41:47;100659.28;;;19.67
61189;BMP280;47054;39.716;2.904;2022-12-24T12:47:46;100650.09;;;19.68
61189;BMP280;47054;39.716;2.904;2022-12-24T12:54:07;100641.22;;;19.68
61189;BMP280;47054;39.716;2.904;2022-12-24T12:56:59;100640.09;;;19.69
61189;BMP280;47054;39.716;2.904;2022-12-24T12:59:58;100643.94;;;19.71
61189;BMP280;47054;39.716;2.904;2022-12-24T13:09:51;100623.16;;;19.65
61189;BMP280;47054;39.716;2.904;2022-12-24T13:16:02;100613.22;;;19.72
61189;BMP280;47054;39.716;2.904;2022-12-24T13:21:55;100622.84;;;19.73
61189;BMP280;47054;39.716;2.904;2022-12-24T13:24:52;100619.00;;;19.74
61189;BMP280;47054;39.716;2.904;2022-12-24T13:27:38;100607.81;;;19.69
61189;BMP280;47054;39.716;2.904;2022-12-24T13:30:37;100623.63;;;19.77
61189;BMP280;47054;39.716;2.904;2022-12-24T13:36:22;100619.38;;;19.73
61189;BMP280;47054;39.716;2.904;2022-12-24T13:39:18;100623.63;;;19.77
61189;BMP280;47054;39.716;2.904;2022-12-24T13:42:02;100618.25;;;19.81
61189;BMP280;47054;39.716;2.904;2022-12-24T13:50:58;100613.66;;;19.82
61189;BMP280;47054;39.716;2.904;2022-12-24T13:53:45;100612.53;;;19.83
61189;BMP280;47054;39.716;2.904;2022-12-24T13:56:31;100611.41;;;19.84
61189;BMP280;47054;39.716;2.904;2022-12-24T14:02:19;100608.72;;;19.84
61189;BMP280;47054;39.716;2.904;2022-12-24T14:05:14;100614.09;;;19.84
61189;BMP280;47054;39.716;2.904;2022-12-24T14:08:04;100617.94;;;19.86
61189;BMP280;47054;39.716;2.904;2022-12-24T14:11:07;100607.56;;;19.88
61189;BMP280;47054;39.716;2.904;2022-12-24T14:16:47;100608.31;;;19.85
61189;BMP280;47054;39.716;2.904;2022-12-24T14:19:44;100610.28;;;19.88
61189;BMP280;47054;39.716;2.904;2022-12-24T14:22:36;100604.09;;;19.88
61189;BMP280;47054;39.716;2.904;2022-12-24T14:25:22;100604.09;;;19.88
61189;BMP280;47054;39.716;2.904;2022-12-24T14:28:14;100608.31;;;19.85
61189;BMP280;47054;39.716;2.904;2022-12-24T14:31:02;100607.97;;;19.90
61189;BMP280;47054;39.716;2.904;2022-12-24T14:33:47;100616.41;;;19.89
61189;BMP280;47054;39.716;2.904;2022-12-24T14:36:32;100626.81;;;19.90
61189;BMP280;47054;39.716;2.904;2022-12-24T14:52:00;100624.91;;;19.91
61189;BMP280;47054;39.716;2.904;2022-12-24T14:54:47;100620.66;;;19.90
61189;BMP280;47054;39.716;2.904;2022-12-24T14:57:32;100624.91;;;19.91
61189;BMP280;47054;39.716;2.904;2022-12-24T15:00:19;100616.06;;;19.90
61189;BMP280;47054;39.716;2.904;2022-12-24T15:03:11;100620.28;;;19.95
61189;BMP280;47054;39.716;2.904;2022-12-24T15:06:08;100615.66;;;19.92
61189;BMP280;47054;39.716;2.904;2022-12-24T15:08:55;100619.53;;;19.94
61189;BMP280;47054;39.716;2.904;2022-12-24T15:11:43;100625.69;;;19.95
61189;BMP280;47054;39.716;2.904;2022-12-24T15:14:40;100616.84;;;19.91
61189;BMP280;47054;39.716;2.904;2022-12-24T15:17:26;100612.97;;;19.92
61189;BMP280;47054;39.716;2.904;2022-12-24T15:20:19;100598.00;;;19.91
61189;BMP280;47054;39.716;2.904;2022-12-24T15:23:18;100612.63;;;19.97
61189;BMP280;47054;39.716;2.904;2022-12-24T15:26:19;100612.63;;;19.97
61189;BMP280;47054;39.716;2.904;2022-12-24T15:29:18;100616.09;;;19.97
61189;BMP280;47054;39.716;2.904;2022-12-24T15:32:04;100606.84;;;19.95
61189;BMP280;47054;39.716;2.904;2022-12-24T15:34:51;100607.25;;;19.97
61189;BMP280;47054;39.716;2.904;2022-12-24T15:37:40;100611.50;;;19.98
61189;BMP280;47054;39.716;2.904;2022-12-24T15:40:25;100613.00;;;19.95
61189;BMP280;47054;39.716;2.904;2022-12-24T15:43:10;100616.88;;;19.98
61189;BMP280;47054;39.716;2.904;2022-12-24T15:45:55;100614.16;;;19.94
61189;BMP280;47054;39.716;2.904;2022-12-24T15:48:43;100622.97;;;19.95
61189;BMP280;47054;39.716;2.904;2022-12-24T15:51:34;100620.31;;;19.98
61189;BMP280;47054;39.716;2.904;2022-12-24T15:54:20;100614.19;;;19.98
61189;BMP280;47054;39.716;2.904;2022-12-24T15:57:14;100624.22;;;20.01
61189;BMP280;47054;39.716;2.904;2022-12-24T16:00:23;100615.31;;;19.97
61189;BMP280;47054;39.716;2.904;2022-12-24T16:03:17;100617.63;;;19.98
61189;BMP280;47054;39.716;2.904;2022-12-24T16:06:07;100632.66;;;19.99
61189;BMP280;47054;39.716;2.904;2022-12-24T16:08:52;100617.59;;;19.95
61189;BMP280;47054;39.716;2.904;2022-12-24T16:11:38;100625.31;;;19.96
61189;BMP280;47054;39.716;2.904;2022-12-24T16:14:23;100624.53;;;19.92
61189;BMP280;47054;39.716;2.904;2022-12-24T16:17:21;100622.22;;;19.94
61189;BMP280;47054;39.716;2.904;2022-12-24T16:20:17;100630.72;;;20.00
61189;BMP280;47054;39.716;2.904;2022-12-24T16:23:03;100631.06;;;19.95
61189;BMP280;47054;39.716;2.904;2022-12-24T16:25:50;100645.31;;;19.99
61189;BMP280;47054;39.716;2.904;2022-12-24T16:28:36;100644.53;;;19.98
61189;BMP280;47054;39.716;2.904;2022-12-24T16:31:32;100636.44;;;19.95
61189;BMP280;47054;39.716;2.904;2022-12-24T16:34:17;100642.22;;;19.97
61189;BMP280;47054;39.716;2.904;2022-12-24T16:37:04;100653.03;;;20.00
61189;BMP280;47054;39.716;2.904;2022-12-24T16:39:49;100646.88;;;20.00
61189;BMP280;47054;39.716;2.904;2022-12-24T16:42:34;100652.25;;;20.00
61189;BMP280;47054;39.716;2.904;2022-12-24T16:45:36;100644.50;;;19.95
61189;BMP280;47054;39.716;2.904;2022-12-24T16:48:23;100642.63;;;19.99
61189;BMP280;47054;39.716;2.904;2022-12-24T16:51:07;100646.47;;;19.98
61189;BMP280;47054;39.716;2.904;2022-12-24T16:53:52;100648.38;;;19.97
61189;BMP280;47054;39.716;2.904;2022-12-24T16:56:37;100651.88;;;19.98
61189;BMP280;47054;39.716;2.904;2022-12-24T16:59:23;100651.06;;;19.94
61189;BMP280;47054;39.716;2.904;2022-12-24T17:02:10;100651.09;;;19.97
61189;BMP280;47054;39.716;2.904;2022-12-24T17:04:56;100639.50;;;19.90
61189;BMP280;47054;39.716;2.904;2022-12-24T17:07:41;100644.13;;;19.93
61189;BMP280;47054;39.716;2.904;2022-12-24T17:10:26;100653.00;;;19.97
61189;BMP280;47054;39.716;2.904;2022-12-24T17:13:11;100650.69;;;19.95
61189;BMP280;47054;39.716;2.904;2022-12-24T17:15:56;100641.78;;;19.88
61189;BMP280;47054;39.716;2.904;2022-12-24T17:18:41;100639.50;;;19.90
61189;BMP280;47054;39.716;2.904;2022-12-24T17:21:25;100637.19;;;19.88